createdAt,value
2023-04-16T00:00:37.227Z,100.00
2023-04-16T00:03:04.099Z,100.00
2023-04-16T00:05:30.673Z,100.00
2023-04-16T00:07:57.050Z,100.00
2023-04-16T00:10:23.538Z,100.00
2023-04-16T00:12:49.944Z,100.00
2023-04-16T00:15:16.393Z,100.00
2023-04-16T00:17:42.920Z,100.00
2023-04-16T00:20:10.064Z,100.00
2023-04-16T00:22:36.462Z,100.00
2023-04-16T00:25:02.986Z,100.00
2023-04-16T00:27:29.427Z,100.00
2023-04-16T00:29:55.838Z,100.00
2023-04-16T00:32:22.323Z,100.00
2023-04-16T00:34:48.746Z,100.00
2023-04-16T00:37:15.127Z,100.00
2023-04-16T00:39:41.559Z,100.00
2023-04-16T00:42:07.942Z,100.00
2023-04-16T00:44:37.431Z,100.00
2023-04-16T00:47:04.455Z,100.00
2023-04-16T00:49:31.527Z,100.00
2023-04-16T00:51:57.940Z,100.00
2023-04-16T00:54:25.559Z,100.00
2023-04-16T00:56:52.094Z,100.00
2023-04-16T00:59:18.600Z,100.00
2023-04-16T01:01:45.052Z,100.00
2023-04-16T01:04:11.820Z,100.00
2023-04-16T01:06:38.321Z,100.00
2023-04-16T01:09:05.594Z,100.00
2023-04-16T01:11:32.058Z,100.00
2023-04-16T01:13:58.565Z,100.00
2023-04-16T01:16:26.682Z,100.00
2023-04-16T01:18:53.115Z,100.00
2023-04-16T01:21:19.505Z,100.00
2023-04-16T01:23:45.908Z,100.00
2023-04-16T01:26:12.407Z,100.00
2023-04-16T01:28:38.790Z,100.00
2023-04-16T01:31:05.294Z,100.00
2023-04-16T01:33:31.717Z,100.00
2023-04-16T01:35:58.138Z,100.00
2023-04-16T01:38:24.582Z,100.00
2023-04-16T01:40:56.592Z,100.00
2023-04-16T01:43:23.000Z,100.00
2023-04-16T01:45:49.396Z,100.00
2023-04-16T01:48:15.990Z,100.00
2023-04-16T01:50:42.433Z,100.00
2023-04-16T01:53:09.627Z,100.00
2023-04-16T01:55:36.185Z,100.00
2023-04-16T01:58:02.611Z,100.00
2023-04-16T02:00:29.081Z,100.00
2023-04-16T02:02:55.756Z,100.00
2023-04-16T02:05:22.337Z,100.00
2023-04-16T02:07:48.769Z,100.00
2023-04-16T02:10:15.320Z,100.00
2023-04-16T02:12:41.796Z,100.00
2023-04-16T02:15:08.634Z,100.00
2023-04-16T02:17:35.038Z,100.00
2023-04-16T02:20:03.583Z,100.00
2023-04-16T02:22:30.002Z,100.00
2023-04-16T02:24:56.412Z,100.00
2023-04-16T02:27:22.792Z,100.00
2023-04-16T02:29:49.195Z,100.00
2023-04-16T02:32:15.862Z,100.00
2023-04-16T02:34:43.294Z,100.00
2023-04-16T02:37:09.721Z,100.00
2023-04-16T02:39:36.367Z,100.00
2023-04-16T02:42:02.956Z,100.00
2023-04-16T02:44:29.333Z,100.00
2023-04-16T02:46:55.819Z,100.00
2023-04-16T02:49:22.198Z,100.00
2023-04-16T02:51:48.589Z,100.00
2023-04-16T02:54:14.984Z,100.00
2023-04-16T02:56:41.489Z,100.00
2023-04-16T02:59:08.178Z,100.00
2023-04-16T03:01:34.725Z,100.00
2023-04-16T03:04:01.247Z,100.00
2023-04-16T03:06:27.837Z,100.00
2023-04-16T03:08:54.277Z,100.00
2023-04-16T03:11:20.839Z,100.00
2023-04-16T03:13:47.276Z,100.00
2023-04-16T03:16:13.755Z,100.00
2023-04-16T03:18:40.177Z,100.00
2023-04-16T03:21:06.602Z,100.00
2023-04-16T03:23:33.360Z,100.00
2023-04-16T03:26:00.054Z,100.00
2023-04-16T03:28:26.489Z,100.00
2023-04-16T03:30:53.665Z,100.00
2023-04-16T03:33:20.662Z,100.00
2023-04-16T03:35:47.157Z,100.00
2023-04-16T03:38:13.648Z,100.00
2023-04-16T03:40:40.074Z,100.00
2023-04-16T03:43:06.588Z,100.00
2023-04-16T03:45:32.994Z,100.00
2023-04-16T03:47:59.455Z,100.00
2023-04-16T03:50:26.054Z,100.00
2023-04-16T03:52:52.440Z,100.00
2023-04-16T03:55:18.827Z,100.00
2023-04-16T03:57:45.197Z,100.00
2023-04-16T04:00:12.092Z,100.00
2023-04-16T04:02:38.589Z,100.00
2023-04-16T04:05:05.579Z,100.00
2023-04-16T04:07:32.005Z,100.00
2023-04-16T04:09:58.507Z,100.00
2023-04-16T04:12:24.913Z,100.00
2023-04-16T04:14:51.364Z,100.00
2023-04-16T04:17:17.778Z,100.00
2023-04-16T04:19:54.320Z,100.00
2023-04-16T04:22:27.312Z,100.00
2023-04-16T04:24:53.706Z,100.00
2023-04-16T04:27:20.121Z,100.00
2023-04-16T04:29:46.654Z,100.00
2023-04-16T04:32:13.286Z,100.00
2023-04-16T04:34:39.687Z,100.00
2023-04-16T04:37:06.189Z,100.00
2023-04-16T04:39:32.577Z,100.00
2023-04-16T04:41:59.409Z,100.00
2023-04-16T04:44:25.972Z,100.00
2023-04-16T04:46:52.363Z,100.00
2023-04-16T04:49:18.797Z,100.00
2023-04-16T04:51:45.306Z,100.00
2023-04-16T04:54:11.781Z,100.00
2023-04-16T04:56:38.217Z,100.00
2023-04-16T04:59:04.607Z,100.00
2023-04-16T05:01:31.136Z,100.00
2023-04-16T05:03:57.587Z,100.00
2023-04-16T05:06:24.013Z,100.00
2023-04-16T05:08:50.411Z,100.00
2023-04-16T05:11:16.836Z,100.00
2023-04-16T05:13:43.232Z,100.00
2023-04-16T05:16:09.681Z,100.00
2023-04-16T05:18:36.101Z,100.00
2023-04-16T05:21:02.520Z,100.00
2023-04-16T05:23:28.930Z,100.00
2023-04-16T05:25:55.424Z,100.00
2023-04-16T05:28:21.824Z,100.00
2023-04-16T05:30:48.264Z,100.00
2023-04-16T05:33:14.653Z,100.00
2023-04-16T05:35:41.162Z,100.00
2023-04-16T05:38:07.608Z,100.00
2023-04-16T05:40:34.030Z,100.00
2023-04-16T05:43:00.426Z,100.00
2023-04-16T05:45:28.035Z,100.00
2023-04-16T05:47:54.697Z,100.00
2023-04-16T05:50:21.166Z,100.00
2023-04-16T05:52:47.947Z,100.00
2023-04-16T05:55:14.375Z,100.00
2023-04-16T05:57:51.099Z,100.00
2023-04-16T06:00:17.691Z,100.00
2023-04-16T06:02:44.208Z,100.00
2023-04-16T06:05:10.873Z,100.00
2023-04-16T06:07:37.314Z,100.00
2023-04-16T06:10:03.864Z,100.00
2023-04-16T06:12:30.944Z,100.00
2023-04-16T06:14:57.418Z,100.00
2023-04-16T06:17:24.021Z,100.00
2023-04-16T06:19:50.433Z,100.00
2023-04-16T06:22:16.936Z,100.00
2023-04-16T06:24:43.436Z,100.00
2023-04-16T06:27:10.447Z,100.00
2023-04-16T06:29:41.239Z,100.00
2023-04-16T06:32:08.172Z,100.00
2023-04-16T06:34:34.629Z,100.00
2023-04-16T06:37:01.286Z,100.00
2023-04-16T06:39:27.947Z,100.00
2023-04-16T06:41:54.542Z,100.00
2023-04-16T06:44:20.991Z,100.00
2023-04-16T06:46:47.456Z,100.00
2023-04-16T06:49:13.929Z,100.00
2023-04-16T06:51:40.393Z,100.00
2023-04-16T06:54:06.851Z,100.00
2023-04-16T06:56:33.442Z,100.00
2023-04-16T06:59:00.906Z,100.00
2023-04-16T07:01:28.310Z,100.00
2023-04-16T07:03:55.065Z,100.00
2023-04-16T07:06:21.592Z,100.00
2023-04-16T07:08:48.590Z,100.00
2023-04-16T07:11:15.163Z,100.00
2023-04-16T07:13:41.622Z,100.00
2023-04-16T07:16:08.066Z,100.00
2023-04-16T07:18:34.483Z,100.00
2023-04-16T07:21:01.077Z,100.00
2023-04-16T07:23:27.992Z,100.00
2023-04-16T07:25:54.398Z,100.00
2023-04-16T07:28:20.806Z,100.00
2023-04-16T07:30:47.275Z,100.00
2023-04-16T07:33:13.700Z,100.00
2023-04-16T07:35:40.131Z,100.00
2023-04-16T07:38:06.525Z,100.00
2023-04-16T07:40:33.270Z,100.00
2023-04-16T07:42:59.831Z,100.00
2023-04-16T07:45:26.284Z,100.00
2023-04-16T07:47:52.776Z,100.00
2023-04-16T07:50:19.499Z,100.00
2023-04-16T07:52:47.147Z,100.00
2023-04-16T07:55:13.637Z,100.00
2023-04-16T07:57:41.235Z,100.00
2023-04-16T08:00:08.988Z,100.00
2023-04-16T08:02:35.680Z,100.00
2023-04-16T08:05:02.237Z,100.00
2023-04-16T08:07:28.660Z,100.00
2023-04-16T08:09:55.161Z,100.00
2023-04-16T08:12:21.917Z,100.00
2023-04-16T08:14:48.479Z,100.00
2023-04-16T08:17:15.127Z,100.00
2023-04-16T08:19:42.551Z,100.00
2023-04-16T08:22:09.284Z,100.00
2023-04-16T08:24:35.739Z,100.00
2023-04-16T08:27:11.547Z,100.00
2023-04-16T08:29:44.331Z,100.00
2023-04-16T08:32:10.904Z,100.00
2023-04-16T08:34:37.733Z,100.00
2023-04-16T08:37:04.187Z,100.00
2023-04-16T08:39:30.685Z,100.00
2023-04-16T08:41:58.446Z,100.00
2023-04-16T08:44:27.771Z,100.00
2023-04-16T08:46:59.150Z,100.00
2023-04-16T08:49:27.045Z,100.00
2023-04-16T08:51:55.614Z,100.00
2023-04-16T08:54:34.587Z,100.00
2023-04-16T08:57:05.736Z,100.00
2023-04-16T08:59:32.130Z,100.00
2023-04-16T09:01:59.575Z,100.00
2023-04-16T09:04:28.732Z,100.00
2023-04-16T09:06:56.938Z,100.00
2023-04-16T09:09:23.671Z,100.00
2023-04-16T09:11:52.552Z,100.00
2023-04-16T09:14:20.344Z,100.00
2023-04-16T09:16:49.874Z,100.00
2023-04-16T09:19:16.438Z,100.00
2023-04-16T09:21:46.916Z,100.00
2023-04-16T09:24:13.694Z,100.00
2023-04-16T09:26:43.353Z,100.00
2023-04-16T09:29:10.169Z,100.00
2023-04-16T09:31:36.930Z,100.00
2023-04-16T09:34:08.474Z,100.00
2023-04-16T09:36:36.487Z,100.00
2023-04-16T09:39:03.838Z,100.00
2023-04-16T09:41:32.934Z,100.00
2023-04-16T09:44:02.389Z,100.00
2023-04-16T09:46:35.612Z,100.00
2023-04-16T09:49:08.970Z,100.00
2023-04-16T09:51:41.319Z,100.00
2023-04-16T09:54:08.441Z,100.00
2023-04-16T09:56:43.507Z,100.00
2023-04-16T09:59:31.078Z,100.00
2023-04-16T10:02:15.319Z,99.21
2023-04-16T10:04:53.095Z,98.42
2023-04-16T10:07:20.644Z,100.00
2023-04-16T10:09:50.586Z,100.00
2023-04-16T10:12:17.050Z,100.00
2023-04-16T10:14:43.758Z,100.00
2023-04-16T10:17:10.363Z,99.18
2023-04-16T10:19:37.286Z,100.00
2023-04-16T10:22:04.195Z,98.99
2023-04-16T10:24:32.633Z,98.94
2023-04-16T10:27:00.366Z,100.00
2023-04-16T10:29:28.782Z,98.37
2023-04-16T10:31:56.718Z,99.36
2023-04-16T10:34:24.652Z,97.71
2023-04-16T10:36:52.920Z,98.96
2023-04-16T10:39:22.469Z,96.59
2023-04-16T10:41:49.563Z,96.52
2023-04-16T10:44:18.791Z,94.26
2023-04-16T10:46:50.744Z,93.19
2023-04-16T10:49:24.314Z,96.44
2023-04-16T10:51:58.460Z,90.66
2023-04-16T10:54:30.026Z,83.14
2023-04-16T10:57:00.730Z,84.81
2023-04-16T10:59:31.913Z,86.72
2023-04-16T11:02:01.654Z,89.30
2023-04-16T11:04:33.172Z,84.23
2023-04-16T11:07:05.913Z,84.23
2023-04-16T11:09:53.340Z,81.76
2023-04-16T11:12:39.141Z,80.52
2023-04-16T11:15:08.394Z,78.25
2023-04-16T11:17:43.862Z,78.28
2023-04-16T11:20:24.176Z,78.58
2023-04-16T11:22:55.609Z,82.68
2023-04-16T11:25:31.773Z,81.33
2023-04-16T11:28:01.529Z,81.00
2023-04-16T11:30:36.291Z,81.43
2023-04-16T11:33:08.415Z,81.82
2023-04-16T11:35:34.947Z,80.56
2023-04-16T11:38:01.455Z,77.74
2023-04-16T11:40:31.526Z,77.17
2023-04-16T11:43:03.863Z,78.49
2023-04-16T11:45:30.505Z,79.39
2023-04-16T11:47:57.797Z,77.44
2023-04-16T11:50:27.181Z,78.79
2023-04-16T11:52:56.068Z,78.56
2023-04-16T11:55:23.475Z,77.12
2023-04-16T11:57:50.889Z,75.49
2023-04-16T12:00:19.310Z,75.66
2023-04-16T12:02:52.767Z,75.45
2023-04-16T12:05:30.666Z,76.11
2023-04-16T12:07:58.204Z,76.90
2023-04-16T12:10:25.120Z,77.52
2023-04-16T12:12:51.933Z,77.93
2023-04-16T12:15:18.441Z,72.84
2023-04-16T12:17:44.924Z,74.35
2023-04-16T12:20:15.650Z,76.59
2023-04-16T12:22:47.236Z,74.93
2023-04-16T12:25:16.434Z,75.89
2023-04-16T12:27:55.634Z,74.44
2023-04-16T12:30:23.842Z,74.39
2023-04-16T12:32:52.534Z,76.30
2023-04-16T12:35:33.386Z,75.91
2023-04-16T12:38:00.979Z,77.69
2023-04-16T12:40:27.599Z,75.90
2023-04-16T12:42:54.969Z,75.62
2023-04-16T12:45:22.081Z,76.46
2023-04-16T12:47:50.376Z,77.58
2023-04-16T12:50:17.443Z,77.23
2023-04-16T12:52:44.106Z,77.91
2023-04-16T12:55:10.689Z,76.52
2023-04-16T12:57:37.269Z,74.24
2023-04-16T13:00:06.343Z,74.31
2023-04-16T13:02:33.123Z,71.17
2023-04-16T13:04:59.863Z,74.39
2023-04-16T13:07:26.903Z,73.53
2023-04-16T13:09:53.846Z,73.12
2023-04-16T13:12:20.445Z,72.68
2023-04-16T13:14:47.061Z,70.58
2023-04-16T13:17:13.653Z,64.97
2023-04-16T13:19:40.031Z,69.19
2023-04-16T13:22:06.490Z,71.09
2023-04-16T13:24:33.051Z,70.49
2023-04-16T13:26:59.645Z,70.59
2023-04-16T13:29:26.199Z,70.75
2023-04-16T13:31:52.974Z,69.14
2023-04-16T13:34:19.948Z,70.75
2023-04-16T13:36:46.443Z,68.22
2023-04-16T13:39:13.034Z,68.07
2023-04-16T13:41:40.331Z,68.10
2023-04-16T13:44:07.182Z,69.76
2023-04-16T13:46:34.004Z,67.34
2023-04-16T13:49:00.591Z,66.85
2023-04-16T13:51:27.868Z,66.37
2023-04-16T13:53:55.943Z,64.90
2023-04-16T13:56:56.409Z,64.84
2023-04-16T13:59:22.976Z,65.37
2023-04-16T14:01:49.599Z,64.42
2023-04-16T14:04:16.137Z,67.63
2023-04-16T14:06:42.637Z,68.51
2023-04-16T14:09:10.872Z,69.17
2023-04-16T14:11:37.769Z,67.19
2023-04-16T14:14:04.657Z,67.50
2023-04-16T14:16:31.419Z,67.43
2023-04-16T14:18:57.844Z,68.36
2023-04-16T14:21:24.319Z,66.92
2023-04-16T14:23:51.369Z,67.78
2023-04-16T14:26:17.861Z,65.93
2023-04-16T14:28:44.708Z,64.53
2023-04-16T14:31:11.295Z,62.15
2023-04-16T14:33:37.810Z,62.93
2023-04-16T14:36:04.854Z,59.58
2023-04-16T14:38:31.948Z,61.23
2023-04-16T14:41:00.130Z,61.11
2023-04-16T14:43:27.026Z,58.89
2023-04-16T14:45:53.495Z,57.51
2023-04-16T14:48:19.997Z,55.99
2023-04-16T14:50:46.548Z,55.84
2023-04-16T14:53:13.015Z,56.41
2023-04-16T14:55:39.581Z,59.08
2023-04-16T14:58:06.217Z,58.19
2023-04-16T15:00:34.555Z,59.18
2023-04-16T15:03:01.299Z,56.00
2023-04-16T15:05:27.913Z,54.87
2023-04-16T15:07:55.040Z,52.48
2023-04-16T15:10:21.522Z,52.73
2023-04-16T15:12:48.000Z,52.06
2023-04-16T15:15:14.503Z,48.87
2023-04-16T15:17:43.063Z,51.39
2023-04-16T15:20:10.360Z,53.88
2023-04-16T15:22:36.843Z,51.16
2023-04-16T15:25:03.503Z,53.77
2023-04-16T15:27:30.004Z,55.29
2023-04-16T15:29:56.662Z,56.39
2023-04-16T15:32:23.299Z,54.27
2023-04-16T15:34:49.757Z,54.59
2023-04-16T15:37:16.453Z,54.89
2023-04-16T15:39:43.079Z,54.36
2023-04-16T15:42:11.081Z,52.98
2023-04-16T15:44:37.572Z,52.13
2023-04-16T15:47:06.298Z,52.90
2023-04-16T15:49:32.857Z,54.23
2023-04-16T15:51:59.496Z,54.37
2023-04-16T15:54:26.089Z,54.98
2023-04-16T15:56:52.676Z,54.41
2023-04-16T15:59:19.160Z,55.70
2023-04-16T16:01:45.906Z,55.77
2023-04-16T16:04:12.541Z,56.47
2023-04-16T16:06:39.132Z,56.47
2023-04-16T16:09:05.615Z,53.94
2023-04-16T16:11:32.577Z,53.40
2023-04-16T16:14:01.402Z,54.60
2023-04-16T16:16:28.599Z,55.15
2023-04-16T16:18:55.678Z,54.31
2023-04-16T16:21:22.172Z,54.24
2023-04-16T16:23:49.794Z,54.34
2023-04-16T16:26:16.421Z,54.30
2023-04-16T16:28:44.714Z,54.98
2023-04-16T16:31:12.241Z,55.46
2023-04-16T16:33:40.389Z,53.78
2023-04-16T16:36:10.800Z,54.88
2023-04-16T16:38:37.914Z,54.30
2023-04-16T16:41:04.465Z,53.91
2023-04-16T16:43:31.005Z,54.24
2023-04-16T16:45:57.413Z,54.77
2023-04-16T16:48:23.832Z,53.79
2023-04-16T16:50:50.273Z,53.09
2023-04-16T16:53:17.049Z,52.76
2023-04-16T16:55:48.840Z,52.00
2023-04-16T16:58:15.455Z,53.38
2023-04-16T17:00:42.325Z,53.80
2023-04-16T17:03:09.360Z,54.56
2023-04-16T17:05:36.130Z,55.30
2023-04-16T17:08:02.620Z,55.48
2023-04-16T17:10:29.448Z,55.29
2023-04-16T17:12:56.115Z,56.23
2023-04-16T17:15:22.768Z,56.53
2023-04-16T17:17:49.349Z,56.14
2023-04-16T17:20:15.948Z,55.94
2023-04-16T17:22:42.532Z,56.63
2023-04-16T17:25:09.998Z,57.03
2023-04-16T17:27:36.601Z,55.42
2023-04-16T17:30:05.333Z,55.59
2023-04-16T17:32:32.583Z,53.39
2023-04-16T17:35:00.389Z,53.37
2023-04-16T17:37:27.357Z,55.05
2023-04-16T17:39:53.804Z,54.38
2023-04-16T17:42:20.474Z,53.09
2023-04-16T17:44:47.490Z,55.18
2023-04-16T17:47:14.034Z,56.44
2023-04-16T17:49:40.594Z,57.71
2023-04-16T17:52:07.057Z,58.17
2023-04-16T17:54:33.609Z,59.53
2023-04-16T17:57:00.042Z,60.72
2023-04-16T17:59:27.293Z,62.59
2023-04-16T18:01:54.663Z,65.10
2023-04-16T18:04:21.349Z,66.23
2023-04-16T18:06:47.890Z,66.79
2023-04-16T18:09:14.421Z,66.63
2023-04-16T18:11:40.818Z,65.46
2023-04-16T18:14:16.840Z,66.00
2023-04-16T18:16:43.350Z,66.62
2023-04-16T18:19:09.809Z,66.66
2023-04-16T18:21:36.196Z,67.61
2023-04-16T18:24:03.504Z,68.26
2023-04-16T18:26:30.119Z,69.92
2023-04-16T18:28:56.686Z,72.25
2023-04-16T18:31:23.189Z,73.43
2023-04-16T18:33:57.307Z,75.91
2023-04-16T18:36:26.029Z,77.02
2023-04-16T18:39:00.121Z,78.81
2023-04-16T18:41:28.544Z,80.60
2023-04-16T18:43:55.038Z,78.25
2023-04-16T18:46:21.501Z,78.25
2023-04-16T18:48:47.931Z,78.25
2023-04-16T18:51:16.074Z,77.34
2023-04-16T18:53:44.318Z,76.27
2023-04-16T18:56:11.587Z,75.98
2023-04-16T18:58:38.128Z,75.44
2023-04-16T19:01:06.102Z,75.11
2023-04-16T19:03:33.289Z,74.55
2023-04-16T19:06:00.062Z,75.38
2023-04-16T19:08:27.086Z,76.30
2023-04-16T19:10:53.495Z,78.35
2023-04-16T19:13:19.967Z,78.61
2023-04-16T19:15:46.378Z,79.49
2023-04-16T19:18:12.826Z,78.87
2023-04-16T19:20:39.483Z,80.54
2023-04-16T19:23:08.271Z,80.61
2023-04-16T19:25:39.350Z,81.67
2023-04-16T19:28:05.810Z,82.79
2023-04-16T19:30:32.581Z,84.19
2023-04-16T19:32:59.040Z,85.95
2023-04-16T19:35:25.738Z,85.25
2023-04-16T19:37:52.173Z,87.87
2023-04-16T19:40:18.610Z,87.94
2023-04-16T19:42:45.380Z,88.26
2023-04-16T19:45:11.926Z,88.89
2023-04-16T19:47:38.550Z,91.91
2023-04-16T19:50:05.794Z,95.10
2023-04-16T19:52:37.279Z,96.90
2023-04-16T19:55:04.186Z,100.00
2023-04-16T19:57:30.697Z,100.00
2023-04-16T19:59:57.196Z,100.00
2023-04-16T20:02:23.655Z,100.00
2023-04-16T20:04:50.761Z,100.00
2023-04-16T20:07:17.520Z,100.00
2023-04-16T20:09:43.985Z,100.00
2023-04-16T20:12:10.772Z,100.00
2023-04-16T20:14:37.264Z,100.00
2023-04-16T20:17:03.816Z,100.00
2023-04-16T20:19:33.528Z,100.00
2023-04-16T20:22:00.067Z,100.00
2023-04-16T20:24:26.567Z,100.00
2023-04-16T20:26:52.973Z,100.00
2023-04-16T20:29:19.381Z,100.00
2023-04-16T20:31:46.135Z,100.00
2023-04-16T20:34:12.800Z,100.00
2023-04-16T20:36:39.194Z,100.00
2023-04-16T20:39:07.817Z,100.00
2023-04-16T20:41:34.254Z,100.00
2023-04-16T20:44:05.314Z,100.00
2023-04-16T20:46:34.214Z,100.00
2023-04-16T20:49:03.514Z,99.72
2023-04-16T20:51:29.886Z,99.11
2023-04-16T20:53:56.343Z,97.85
2023-04-16T20:56:22.794Z,96.56
2023-04-16T20:58:49.204Z,96.67
2023-04-16T21:01:16.286Z,96.69
2023-04-16T21:03:42.996Z,97.24
2023-04-16T21:06:09.612Z,97.48
2023-04-16T21:08:36.166Z,96.83
2023-04-16T21:11:02.720Z,93.26
2023-04-16T21:13:29.340Z,89.98
2023-04-16T21:15:55.883Z,87.55
2023-04-16T21:18:22.336Z,87.32
2023-04-16T21:20:49.843Z,86.56
2023-04-16T21:23:16.340Z,87.68
2023-04-16T21:25:42.795Z,88.50
2023-04-16T21:28:09.287Z,89.31
2023-04-16T21:30:36.588Z,89.54
2023-04-16T21:33:03.321Z,91.31
2023-04-16T21:35:32.235Z,92.75
2023-04-16T21:37:58.744Z,93.55
2023-04-16T21:40:25.284Z,94.15
2023-04-16T21:42:51.712Z,95.53
2023-04-16T21:45:18.168Z,95.94
2023-04-16T21:47:44.607Z,96.07
2023-04-16T21:50:11.707Z,96.86
2023-04-16T21:52:40.691Z,98.69
2023-04-16T21:55:09.217Z,98.63
2023-04-16T21:57:35.610Z,100.00
2023-04-16T22:00:02.464Z,100.00
2023-04-16T22:02:29.053Z,100.00
2023-04-16T22:04:55.631Z,100.00
2023-04-16T22:07:22.123Z,100.00
2023-04-16T22:09:48.519Z,100.00
2023-04-16T22:12:14.986Z,100.00
2023-04-16T22:14:49.208Z,100.00
2023-04-16T22:17:27.622Z,100.00
2023-04-16T22:19:54.533Z,100.00
2023-04-16T22:22:21.883Z,100.00
2023-04-16T22:24:48.777Z,100.00
2023-04-16T22:27:15.571Z,100.00
2023-04-16T22:29:42.022Z,100.00
2023-04-16T22:32:08.523Z,100.00
2023-04-16T22:34:35.095Z,100.00
2023-04-16T22:37:02.955Z,100.00
2023-04-16T22:39:30.752Z,100.00
2023-04-16T22:41:57.135Z,100.00
2023-04-16T22:44:23.540Z,100.00
2023-04-16T22:46:49.984Z,100.00
2023-04-16T22:49:16.554Z,100.00
2023-04-16T22:51:43.380Z,100.00
2023-04-16T22:54:13.678Z,100.00
2023-04-16T22:56:40.686Z,100.00
2023-04-16T22:59:07.656Z,100.00
2023-04-16T23:01:34.681Z,100.00
2023-04-16T23:04:01.255Z,100.00
2023-04-16T23:06:27.806Z,100.00
2023-04-16T23:08:54.178Z,100.00
2023-04-16T23:11:20.805Z,100.00
2023-04-16T23:13:47.243Z,100.00
2023-04-16T23:16:13.732Z,100.00
2023-04-16T23:18:40.234Z,100.00
2023-04-16T23:21:06.622Z,100.00
2023-04-16T23:23:33.298Z,100.00
2023-04-16T23:26:01.050Z,100.00
2023-04-16T23:28:27.468Z,100.00
2023-04-16T23:30:53.912Z,100.00
2023-04-16T23:33:20.848Z,100.00
2023-04-16T23:35:47.724Z,100.00
2023-04-16T23:38:14.166Z,100.00
2023-04-16T23:40:40.640Z,100.00
2023-04-16T23:43:07.030Z,100.00
2023-04-16T23:45:33.507Z,100.00
2023-04-16T23:48:00.115Z,100.00
2023-04-16T23:50:26.587Z,100.00
2023-04-16T23:52:52.998Z,100.00
2023-04-16T23:55:19.534Z,100.00
2023-04-16T23:57:46.256Z,100.00
